createdAt,value
2018-08-20T08:10:23.308Z,16.02
2018-08-20T08:12:54.140Z,16.42
2018-08-20T08:15:24.956Z,14.33
2018-08-20T08:17:55.053Z,13.68
2018-08-20T08:20:25.731Z,12.70
2018-08-20T08:22:55.467Z,13.18
2018-08-20T08:25:26.374Z,12.18
2018-08-20T08:27:56.864Z,12.70
2018-08-20T08:30:26.456Z,11.80
2018-08-20T08:32:56.736Z,12.45
2018-08-20T08:35:26.564Z,12.55
2018-08-20T08:38:13.008Z,13.28
2018-08-20T08:40:55.542Z,13.00
2018-08-20T08:43:37.076Z,13.48
2018-08-20T08:46:20.389Z,12.13
2018-08-20T08:48:59.452Z,13.72
2018-08-20T08:51:29.400Z,12.75
2018-08-20T08:54:00.300Z,12.73
2018-08-20T08:56:30.241Z,13.53
2018-08-20T08:59:00.750Z,11.78
2018-08-20T09:01:31.540Z,12.20
2018-08-20T09:04:01.171Z,12.00
2018-08-20T09:06:32.196Z,10.70
2018-08-20T09:09:02.181Z,11.75
2018-08-20T09:11:32.100Z,11.83
2018-08-20T09:14:02.444Z,30.62
2018-08-20T09:16:32.160Z,11.22
2018-08-20T09:21:44.632Z,12.70
2018-08-20T09:26:52.191Z,14.95
2018-08-20T09:29:22.052Z,12.33
2018-08-20T09:31:52.334Z,11.68
2018-08-20T09:34:22.662Z,11.65
2018-08-20T09:36:53.078Z,11.90
2018-08-20T09:39:23.310Z,13.20
2018-08-20T09:41:53.147Z,11.30
2018-08-20T09:44:23.657Z,10.63
2018-08-20T09:46:54.391Z,12.78
2018-08-20T09:49:25.188Z,10.23
2018-08-20T09:51:55.300Z,9.80
2018-08-20T09:54:26.168Z,11.60
2018-08-20T09:56:56.678Z,10.82
2018-08-20T09:59:27.025Z,12.98
2018-08-20T10:01:57.500Z,10.88
2018-08-20T10:04:27.319Z,14.68
2018-08-20T10:06:57.995Z,10.13
2018-08-20T10:09:28.063Z,10.82
2018-08-20T10:11:58.764Z,15.83
2018-08-20T10:14:30.100Z,10.95
2018-08-20T10:17:01.959Z,11.10
2018-08-20T10:19:32.146Z,14.38
2018-08-20T10:22:03.056Z,10.78
2018-08-20T10:24:33.595Z,12.20
2018-08-20T10:27:04.310Z,13.43
2018-08-20T10:29:34.139Z,10.48
2018-08-20T10:32:05.426Z,10.82
2018-08-20T10:34:35.976Z,11.10
2018-08-20T10:37:05.743Z,10.63
2018-08-20T10:39:35.359Z,10.25
2018-08-20T10:42:04.951Z,9.88
2018-08-20T10:44:40.491Z,10.68
2018-08-20T10:47:10.263Z,11.97
2018-08-20T10:49:40.531Z,10.65
2018-08-20T10:52:11.156Z,10.28
2018-08-20T10:54:41.021Z,10.15
2018-08-20T10:57:10.935Z,11.80
2018-08-20T10:59:40.679Z,9.90
2018-08-20T11:02:10.918Z,10.70
2018-08-20T11:04:41.920Z,10.50
2018-08-20T11:07:12.400Z,11.30
2018-08-20T11:09:42.301Z,11.88
2018-08-20T11:12:12.900Z,10.58
2018-08-20T11:14:42.772Z,10.60
2018-08-20T11:17:12.644Z,10.23
2018-08-20T11:19:42.651Z,12.78
2018-08-20T11:22:12.468Z,10.43
2018-08-20T11:24:44.008Z,10.95
2018-08-20T11:27:13.865Z,10.58
2018-08-20T11:29:43.480Z,11.40
2018-08-20T11:32:13.848Z,12.55
2018-08-20T11:34:44.535Z,12.82
2018-08-20T11:37:14.201Z,10.25
2018-08-20T11:39:44.351Z,12.90
2018-08-20T11:42:14.095Z,10.53
2018-08-20T11:44:45.147Z,13.22
2018-08-20T11:47:15.314Z,13.78
2018-08-20T11:49:45.248Z,14.65
2018-08-20T11:52:14.859Z,15.23
2018-08-20T11:54:45.227Z,15.20
2018-08-20T11:57:16.012Z,15.05
2018-08-20T11:59:46.159Z,13.72
2018-08-20T12:02:16.356Z,14.60
2018-08-20T12:04:46.076Z,14.30
2018-08-20T12:07:16.866Z,14.10
2018-08-20T12:09:46.920Z,17.20
2018-08-20T12:12:16.621Z,15.53
2018-08-20T12:14:46.290Z,14.47
2018-08-20T12:17:16.292Z,14.05
2018-08-20T12:19:46.335Z,14.20
2018-08-20T12:22:17.322Z,14.18
2018-08-20T12:24:48.095Z,14.35
2018-08-20T12:27:17.668Z,13.55
2018-08-20T12:29:47.259Z,14.03
2018-08-20T12:32:17.496Z,14.13
2018-08-20T12:34:47.860Z,14.28
2018-08-20T12:37:17.623Z,16.27
2018-08-20T12:39:48.219Z,13.53
2018-08-20T12:42:19.040Z,14.10
2018-08-20T12:44:49.924Z,13.80
2018-08-20T12:47:20.056Z,14.63
2018-08-20T12:49:49.922Z,14.43
2018-08-20T12:52:20.160Z,14.95
2018-08-20T12:54:54.982Z,14.63
2018-08-20T12:57:24.934Z,14.33
2018-08-20T12:59:57.347Z,18.60
2018-08-20T13:02:27.122Z,18.05
2018-08-20T13:04:57.408Z,19.17
2018-08-20T13:07:41.947Z,16.37
2018-08-20T13:10:20.199Z,16.87
2018-08-20T13:12:50.283Z,20.02
2018-08-20T13:15:20.443Z,18.70
2018-08-20T13:17:50.391Z,15.18
2018-08-20T13:20:19.997Z,17.90
2018-08-20T13:22:49.851Z,16.75
2018-08-20T13:25:20.976Z,18.05
2018-08-20T13:27:54.655Z,15.43
2018-08-20T13:30:24.551Z,20.55
2018-08-20T13:32:54.249Z,18.50
2018-08-20T13:35:25.391Z,15.35
2018-08-20T13:37:55.979Z,20.12
2018-08-20T13:40:30.603Z,17.75
2018-08-20T13:43:06.903Z,17.32
2018-08-20T13:45:41.177Z,14.15
2018-08-20T13:48:12.388Z,21.80
2018-08-20T13:50:44.612Z,15.20
2018-08-20T13:53:16.488Z,20.70
2018-08-20T13:55:49.819Z,13.10
2018-08-20T13:58:27.938Z,10.68
2018-08-20T14:01:06.627Z,8.20
2018-08-20T14:03:49.415Z,9.93
2018-08-20T14:06:31.287Z,9.03
2018-08-20T14:09:08.156Z,8.00
2018-08-20T14:11:38.427Z,9.23
2018-08-20T14:14:12.859Z,8.03
2018-08-20T14:16:43.961Z,5.78
2018-08-20T14:19:13.687Z,6.67
2018-08-20T14:21:47.676Z,6.37
2018-08-20T14:24:17.507Z,8.23
2018-08-20T14:26:48.120Z,7.85
2018-08-20T14:29:22.973Z,10.58
2018-08-20T14:31:53.137Z,10.48
2018-08-20T14:34:26.675Z,16.77
2018-08-20T14:36:56.406Z,10.45
2018-08-20T14:39:25.929Z,13.38
2018-08-20T14:41:55.923Z,10.60
2018-08-20T14:44:26.132Z,12.25
2018-08-20T14:46:56.628Z,13.43
2018-08-20T14:49:27.173Z,13.13
2018-08-20T14:51:57.418Z,13.80
2018-08-20T14:54:27.344Z,13.47
2018-08-20T14:56:57.731Z,12.47
2018-08-20T14:59:27.711Z,12.98
2018-08-20T15:01:57.918Z,9.57
2018-08-20T15:04:27.932Z,10.63
2018-08-20T15:07:00.922Z,12.03
2018-08-20T15:09:31.396Z,9.93
2018-08-20T15:12:01.060Z,12.55
2018-08-20T15:14:31.202Z,12.13
2018-08-20T15:17:01.592Z,12.07
2018-08-20T15:19:31.953Z,11.80
2018-08-20T15:22:05.203Z,11.27
2018-08-20T15:24:35.567Z,10.60
2018-08-20T15:27:08.193Z,10.03
2018-08-20T15:29:39.167Z,15.60
2018-08-20T15:32:09.363Z,14.15
2018-08-20T15:34:39.075Z,12.10
2018-08-20T15:37:09.711Z,10.98
2018-08-20T15:39:40.185Z,13.47
2018-08-20T15:42:10.560Z,10.90
2018-08-20T15:44:41.091Z,11.80
2018-08-20T15:47:10.875Z,11.07
2018-08-20T15:49:40.756Z,12.43
2018-08-20T15:52:10.364Z,11.13
2018-08-20T15:54:40.648Z,12.37
2018-08-20T15:57:11.440Z,13.58
2018-08-20T15:59:41.371Z,11.80
2018-08-20T16:02:16.037Z,11.27
2018-08-20T16:04:46.219Z,11.90
2018-08-20T16:07:20.756Z,13.30
2018-08-20T16:10:06.480Z,11.53
2018-08-20T16:12:47.762Z,13.63
2018-08-20T16:15:23.932Z,14.40
2018-08-20T16:17:57.906Z,15.37
2018-08-20T16:20:29.799Z,13.30
2018-08-20T16:22:59.728Z,12.00
2018-08-20T16:25:31.766Z,12.70
2018-08-20T16:28:01.704Z,11.83
2018-08-20T16:30:31.636Z,12.97
2018-08-20T16:33:02.204Z,12.53
2018-08-20T16:35:32.732Z,13.30
2018-08-20T16:38:02.920Z,13.53
2018-08-20T16:40:32.530Z,12.70
2018-08-20T16:43:02.468Z,12.80
2018-08-20T16:45:33.368Z,12.50
2018-08-20T16:48:05.108Z,12.50
2018-08-20T16:50:35.259Z,11.10
2018-08-20T16:53:05.199Z,13.10
2018-08-20T16:55:35.080Z,11.40
2018-08-20T16:58:05.556Z,10.10
2018-08-20T17:00:35.425Z,9.63
2018-08-20T17:03:09.718Z,9.50
2018-08-20T17:05:45.408Z,10.13
2018-08-20T17:08:21.591Z,10.13
2018-08-20T17:10:51.684Z,9.57
2018-08-20T17:13:21.776Z,9.67
2018-08-20T17:15:51.581Z,9.25
2018-08-20T17:18:35.647Z,9.73
2018-08-20T17:21:07.168Z,9.00
2018-08-20T17:23:42.896Z,9.53
2018-08-20T17:26:13.309Z,9.67
2018-08-20T17:28:51.425Z,7.70
2018-08-20T17:31:30.405Z,8.40
2018-08-20T17:34:06.407Z,8.37
2018-08-20T17:36:40.369Z,7.33
2018-08-20T17:39:15.021Z,8.03
2018-08-20T17:41:45.099Z,8.97
2018-08-20T17:44:23.515Z,6.73
2018-08-20T17:46:57.527Z,8.00
2018-08-20T17:49:30.327Z,8.60
2018-08-20T17:52:05.553Z,7.07
2018-08-20T17:54:45.995Z,8.07
2018-08-20T17:57:17.561Z,7.47
2018-08-20T18:00:10.242Z,7.37
2018-08-20T18:02:52.121Z,7.30
2018-08-20T18:05:24.131Z,8.97
2018-08-20T18:07:55.583Z,6.40
2018-08-20T18:10:25.608Z,9.73
2018-08-20T18:12:57.932Z,10.60
2018-08-20T18:15:28.072Z,11.13
2018-08-20T18:17:58.644Z,7.33
2018-08-20T18:20:29.923Z,9.37
2018-08-20T18:23:00.102Z,15.77
2018-08-20T18:25:34.820Z,17.10
2018-08-20T18:28:04.748Z,15.00
2018-08-20T18:31:06.664Z,16.40
2018-08-20T18:33:41.689Z,14.73
2018-08-20T18:36:25.277Z,15.97
2018-08-20T18:39:01.340Z,14.17
2018-08-20T18:42:00.007Z,15.07
2018-08-20T18:51:53.630Z,18.00
2018-08-20T18:54:23.685Z,20.93
2018-08-20T18:57:07.544Z,19.40
2018-08-20T18:59:39.871Z,19.67
2018-08-20T19:02:21.478Z,21.53
2018-08-20T19:04:57.084Z,20.03
2018-08-20T19:07:29.954Z,19.63
2018-08-20T19:10:00.172Z,17.80
2018-08-20T19:12:30.380Z,19.30
2018-08-20T19:15:14.176Z,21.10
2018-08-20T19:17:44.225Z,20.20
2018-08-20T19:20:22.916Z,24.40
2018-08-20T19:22:55.871Z,22.90
2018-08-20T19:25:31.380Z,20.33
2018-08-20T19:28:08.268Z,23.60
2018-08-20T19:30:39.040Z,31.30
2018-08-20T19:33:14.416Z,21.87
2018-08-20T19:35:44.591Z,23.17
2018-08-20T19:38:15.367Z,21.43
2018-08-20T19:40:45.525Z,19.73
2018-08-20T19:43:15.911Z,19.73
2018-08-20T19:45:46.306Z,19.93
2018-08-20T19:48:17.700Z,20.57
2018-08-20T19:50:48.528Z,18.07
2018-08-20T19:53:24.003Z,18.13
2018-08-20T19:55:54.196Z,20.80
2018-08-20T19:58:34.601Z,19.63
2018-08-20T20:01:12.739Z,19.00
2018-08-20T20:03:45.748Z,19.80
2018-08-20T20:06:16.815Z,17.47
2018-08-20T20:08:46.932Z,17.90
2018-08-20T20:11:22.786Z,17.60
2018-08-20T20:13:57.343Z,17.33
2018-08-20T20:16:29.799Z,17.13
2018-08-20T20:18:59.966Z,16.10
2018-08-20T20:21:30.825Z,17.32
2018-08-20T20:24:01.092Z,16.30
2018-08-20T20:26:31.394Z,16.57
2018-08-20T20:29:02.936Z,15.53
2018-08-20T20:31:32.996Z,16.90
2018-08-20T20:34:04.124Z,16.60
2018-08-20T20:36:34.387Z,15.70
2018-08-20T20:39:05.945Z,16.33
2018-08-20T20:41:36.044Z,16.90
2018-08-20T20:44:06.441Z,18.77
2018-08-20T20:46:36.557Z,19.30
2018-08-20T20:49:08.695Z,25.80
2018-08-20T20:51:38.991Z,17.37
2018-08-20T20:54:09.461Z,18.03
2018-08-20T20:56:39.220Z,16.17
2018-08-20T20:59:09.144Z,15.97
2018-08-20T21:01:46.405Z,16.17
2018-08-20T21:04:22.052Z,15.60
2018-08-20T21:06:52.525Z,17.43
2018-08-20T21:09:22.530Z,16.20
2018-08-20T21:11:52.431Z,18.40
2018-08-20T21:14:24.391Z,19.27
2018-08-20T21:16:55.234Z,19.17
2018-08-20T21:19:26.759Z,18.03
2018-08-20T21:21:56.435Z,17.27
2018-08-20T21:24:26.288Z,17.87
2018-08-20T21:26:56.523Z,19.10
2018-08-20T21:29:27.405Z,19.27
2018-08-20T21:31:57.616Z,18.10
2018-08-20T21:34:34.331Z,19.23
2018-08-20T21:37:04.789Z,22.43
2018-08-20T21:39:34.971Z,19.60
2018-08-20T21:42:04.942Z,19.13
2018-08-20T21:44:35.198Z,19.97
2018-08-20T21:47:30.288Z,20.87
2018-08-20T21:50:00.496Z,18.77
2018-08-20T21:52:31.028Z,19.33
2018-08-20T21:55:06.002Z,19.30
2018-08-20T21:57:49.646Z,19.03
2018-08-20T22:00:21.759Z,17.50
2018-08-20T22:02:57.043Z,17.77
2018-08-20T22:05:29.506Z,17.83
2018-08-20T22:08:00.332Z,18.82
2018-08-20T22:10:31.460Z,17.77
2018-08-20T22:13:01.018Z,16.77
2018-08-20T22:15:31.702Z,16.70
2018-08-20T22:18:01.732Z,16.03
2018-08-20T22:20:32.455Z,16.03
2018-08-20T22:23:11.992Z,16.33
2018-08-20T22:25:33.378Z,15.90
2018-08-20T22:28:03.603Z,16.40
2018-08-20T22:30:36.675Z,16.90
2018-08-20T22:33:07.119Z,16.10
2018-08-20T22:35:37.033Z,15.10
2018-08-20T22:38:07.281Z,16.20
2018-08-20T22:40:37.521Z,15.00
2018-08-20T22:43:08.315Z,15.47
2018-08-20T22:45:39.175Z,14.90
2018-08-20T22:48:09.061Z,14.73
2018-08-20T22:50:38.911Z,15.50
2018-08-20T22:53:10.152Z,14.80
2018-08-20T22:55:46.892Z,14.70
2018-08-20T22:58:16.672Z,14.83
2018-08-20T23:00:46.292Z,16.40
2018-08-20T23:03:16.251Z,14.80
2018-08-20T23:05:46.407Z,15.40
2018-08-20T23:08:18.239Z,15.90
2018-08-20T23:10:49.796Z,16.07
2018-08-20T23:13:21.032Z,14.63
2018-08-20T23:15:50.968Z,14.87
2018-08-20T23:18:20.724Z,14.97
2018-08-20T23:20:50.987Z,15.23
2018-08-20T23:23:26.379Z,16.10
2018-08-20T23:26:11.655Z,14.73
2018-08-20T23:28:42.448Z,14.77
2018-08-20T23:31:12.630Z,14.83
2018-08-20T23:33:42.203Z,14.00
2018-08-20T23:36:12.204Z,14.73
2018-08-20T23:38:42.714Z,15.43
2018-08-20T23:41:12.560Z,14.33
2018-08-20T23:43:47.207Z,14.43
2018-08-20T23:46:28.123Z,13.27
2018-08-20T23:48:58.143Z,14.00
2018-08-20T23:51:27.856Z,13.30
2018-08-20T23:53:58.795Z,13.50
2018-08-20T23:56:28.622Z,14.63
2018-08-20T23:58:58.924Z,13.97
